Premium, Kentucky
Current Conditions -  °F | °C
As of 3:15 AM on Tuesday 27 Jan 2015 (Local Time) from KLNP Reporting Station
Overcast Overcast  
Wind Chill: 17°   Ceiling: 800
Heat Index: 25°   Visibility: 10mi
Dew Point: 25°   Wind: 7mph
Humidity: 100%   Direction: 300°WNW
Pressure: 29.79"   Gusts: NA
Location:  37.12°N, 82.91°W
Report Text: KLNP 270815Z AUTO 30006KT 10SM OVC008 M04/M04 A2979 RMK AO2
Loading
Personal Weather Stations






























Interactive Weather Map New forecast layout! Learn more

10-Day Weather Forecast

Advertisements
Track Severe Weather on mobile